Terminal Aerodrome Forecast
Issued by NWS

Home | Current Version | Previous Version | Text Only | Print | Product List | Glossary On
Versions: 1 2 3 4 5 6 7 8 9 10 11 12 13 14 15 16 17 18 19 20 21 22 23 24 25 26
000
FTUS42 KCAE 302320
TAFOGB
TAF
KOGB 302320Z 3100/3124 13006KT P6SM VCSH SCT060
     FM310100 VRB04KT P6SM SCT060 BKN150
     FM310900 VRB03KT 5SM BR SCT007 BKN015
     FM311400 13007KT P6SM SCT015 BKN040=

USA.gov is the U.S. government's official web portal to all federal, state and local government web resources and services.